sensor_id;sensor_type;location;lat;lon;timestamp;temperature;humidity
52159;DHT22;38145;53.182;6.284;2022-08-23T00:02:06;17.70;99.90
52159;DHT22;38145;53.182;6.284;2022-08-23T00:04:38;17.60;99.90
52159;DHT22;38145;53.182;6.284;2022-08-23T00:07:08;17.70;99.90
52159;DHT22;38145;53.182;6.284;2022-08-23T00:09:35;17.70;99.90
52159;DHT22;38145;53.182;6.284;2022-08-23T00:12:10;17.60;99.90
52159;DHT22;38145;53.182;6.284;2022-08-23T00:14:42;17.60;99.90
52159;DHT22;38145;53.182;6.284;2022-08-23T00:17:11;17.60;99.90
52159;DHT22;38145;53.182;6.284;2022-08-23T00:19:40;17.70;99.90
52159;DHT22;38145;53.182;6.284;2022-08-23T00:22:07;17.70;99.90
52159;DHT22;38145;53.182;6.284;2022-08-23T00:24:37;17.70;99.90
52159;DHT22;38145;53.182;6.284;2022-08-23T00:29:50;17.60;99.90
52159;DHT22;38145;53.182;6.284;2022-08-23T00:32:21;17.60;99.90
52159;DHT22;38145;53.182;6.284;2022-08-23T00:34:49;17.60;99.90
52159;DHT22;38145;53.182;6.284;2022-08-23T00:37:17;17.60;99.90
52159;DHT22;38145;53.182;6.284;2022-08-23T00:39:44;17.60;99.90
52159;DHT22;38145;53.182;6.284;2022-08-23T00:42:15;17.60;99.90
52159;DHT22;38145;53.182;6.284;2022-08-23T00:45:07;17.60;99.90
52159;DHT22;38145;53.182;6.284;2022-08-23T00:47:53;17.50;99.90
52159;DHT22;38145;53.182;6.284;2022-08-23T00:50:28;17.50;99.90
52159;DHT22;38145;53.182;6.284;2022-08-23T00:53:14;17.40;99.90
52159;DHT22;38145;53.182;6.284;2022-08-23T00:55:44;17.40;99.90
52159;DHT22;38145;53.182;6.284;2022-08-23T00:58:13;17.40;99.90
52159;DHT22;38145;53.182;6.284;2022-08-23T01:00:44;17.40;99.90
52159;DHT22;38145;53.182;6.284;2022-08-23T01:03:12;17.30;99.90
52159;DHT22;38145;53.182;6.284;2022-08-23T01:05:50;17.30;99.90
52159;DHT22;38145;53.182;6.284;2022-08-23T01:08:22;17.30;99.90
52159;DHT22;38145;53.182;6.284;2022-08-23T01:10:58;17.20;99.90
52159;DHT22;38145;53.182;6.284;2022-08-23T01:13:37;17.20;99.90
52159;DHT22;38145;53.182;6.284;2022-08-23T01:16:15;17.10;99.90
52159;DHT22;38145;53.182;6.284;2022-08-23T01:18:43;17.10;99.90
52159;DHT22;38145;53.182;6.284;2022-08-23T01:21:24;17.00;99.90
52159;DHT22;38145;53.182;6.284;2022-08-23T01:23:57;16.90;99.90
52159;DHT22;38145;53.182;6.284;2022-08-23T01:26:26;16.80;99.90
52159;DHT22;38145;53.182;6.284;2022-08-23T01:28:53;16.90;99.90
52159;DHT22;38145;53.182;6.284;2022-08-23T01:31:22;16.80;99.90
52159;DHT22;38145;53.182;6.284;2022-08-23T01:33:56;16.90;99.90
52159;DHT22;38145;53.182;6.284;2022-08-23T01:36:24;16.80;99.90
52159;DHT22;38145;53.182;6.284;2022-08-23T01:38:51;16.90;99.90
52159;DHT22;38145;53.182;6.284;2022-08-23T01:41:17;16.80;99.90
52159;DHT22;38145;53.182;6.284;2022-08-23T01:43:47;16.90;99.90
52159;DHT22;38145;53.182;6.284;2022-08-23T01:46:17;16.90;99.90
52159;DHT22;38145;53.182;6.284;2022-08-23T01:48:46;16.90;99.90
52159;DHT22;38145;53.182;6.284;2022-08-23T01:51:15;16.90;99.90
52159;DHT22;38145;53.182;6.284;2022-08-23T01:53:41;16.90;99.90
52159;DHT22;38145;53.182;6.284;2022-08-23T01:56:10;16.90;99.90
52159;DHT22;38145;53.182;6.284;2022-08-23T01:58:36;16.90;99.90
52159;DHT22;38145;53.182;6.284;2022-08-23T02:01:04;16.80;99.90
52159;DHT22;38145;53.182;6.284;2022-08-23T02:03:31;16.80;99.90
52159;DHT22;38145;53.182;6.284;2022-08-23T02:05:59;16.80;99.90
52159;DHT22;38145;53.182;6.284;2022-08-23T02:08:26;16.70;99.90
52159;DHT22;38145;53.182;6.284;2022-08-23T02:11:14;16.70;99.90
52159;DHT22;38145;53.182;6.284;2022-08-23T02:13:42;16.60;99.90
52159;DHT22;38145;53.182;6.284;2022-08-23T02:16:10;16.60;99.90
52159;DHT22;38145;53.182;6.284;2022-08-23T02:18:37;16.50;99.90
52159;DHT22;38145;53.182;6.284;2022-08-23T02:21:05;16.40;99.90
52159;DHT22;38145;53.182;6.284;2022-08-23T02:23:34;16.40;99.90
52159;DHT22;38145;53.182;6.284;2022-08-23T02:26:00;16.40;99.90
52159;DHT22;38145;53.182;6.284;2022-08-23T02:28:28;16.40;99.90
52159;DHT22;38145;53.182;6.284;2022-08-23T02:30:54;16.40;99.90
52159;DHT22;38145;53.182;6.284;2022-08-23T02:33:21;16.40;99.90
52159;DHT22;38145;53.182;6.284;2022-08-23T02:35:48;16.40;99.90
52159;DHT22;38145;53.182;6.284;2022-08-23T02:38:15;16.20;99.90
52159;DHT22;38145;53.182;6.284;2022-08-23T02:40:44;16.20;99.90
52159;DHT22;38145;53.182;6.284;2022-08-23T02:43:12;16.20;99.90
52159;DHT22;38145;53.182;6.284;2022-08-23T02:45:40;16.20;99.90
52159;DHT22;38145;53.182;6.284;2022-08-23T02:48:09;16.10;99.90
52159;DHT22;38145;53.182;6.284;2022-08-23T02:50:38;16.10;99.90
52159;DHT22;38145;53.182;6.284;2022-08-23T02:53:05;16.10;99.90
52159;DHT22;38145;53.182;6.284;2022-08-23T02:55:33;16.10;99.90
52159;DHT22;38145;53.182;6.284;2022-08-23T02:57:59;16.10;99.90
52159;DHT22;38145;53.182;6.284;2022-08-23T03:00:29;16.10;99.90
52159;DHT22;38145;53.182;6.284;2022-08-23T03:02:55;16.00;99.90
52159;DHT22;38145;53.182;6.284;2022-08-23T03:05:25;16.10;99.90
52159;DHT22;38145;53.182;6.284;2022-08-23T03:07:57;16.00;99.90
52159;DHT22;38145;53.182;6.284;2022-08-23T03:10:24;16.00;99.90
52159;DHT22;38145;53.182;6.284;2022-08-23T03:12:51;15.90;99.90
52159;DHT22;38145;53.182;6.284;2022-08-23T03:15:17;15.90;99.90
52159;DHT22;38145;53.182;6.284;2022-08-23T03:17:45;15.80;99.90
52159;DHT22;38145;53.182;6.284;2022-08-23T03:20:14;15.80;99.90
52159;DHT22;38145;53.182;6.284;2022-08-23T03:22:40;15.80;99.90
52159;DHT22;38145;53.182;6.284;2022-08-23T03:25:08;15.80;99.90
52159;DHT22;38145;53.182;6.284;2022-08-23T03:27:36;15.80;99.90
52159;DHT22;38145;53.182;6.284;2022-08-23T03:30:05;15.70;99.90
52159;DHT22;38145;53.182;6.284;2022-08-23T03:32:31;15.70;99.90
52159;DHT22;38145;53.182;6.284;2022-08-23T03:35:04;15.70;99.90
52159;DHT22;38145;53.182;6.284;2022-08-23T03:37:32;15.70;99.90
52159;DHT22;38145;53.182;6.284;2022-08-23T03:39:59;15.70;99.90
52159;DHT22;38145;53.182;6.284;2022-08-23T03:42:25;15.70;99.90
52159;DHT22;38145;53.182;6.284;2022-08-23T03:44:52;15.60;99.90
52159;DHT22;38145;53.182;6.284;2022-08-23T03:47:18;15.60;99.90
52159;DHT22;38145;53.182;6.284;2022-08-23T03:49:45;15.70;99.90
52159;DHT22;38145;53.182;6.284;2022-08-23T03:52:12;15.60;99.90
52159;DHT22;38145;53.182;6.284;2022-08-23T03:54:40;15.60;99.90
52159;DHT22;38145;53.182;6.284;2022-08-23T03:57:07;15.50;99.90
52159;DHT22;38145;53.182;6.284;2022-08-23T03:59:36;15.40;99.90
52159;DHT22;38145;53.182;6.284;2022-08-23T04:02:05;15.40;99.90
52159;DHT22;38145;53.182;6.284;2022-08-23T04:04:31;15.40;99.90
52159;DHT22;38145;53.182;6.284;2022-08-23T04:06:57;15.50;99.90
52159;DHT22;38145;53.182;6.284;2022-08-23T04:09:24;15.50;99.90
52159;DHT22;38145;53.182;6.284;2022-08-23T04:11:50;15.50;99.90
52159;DHT22;38145;53.182;6.284;2022-08-23T04:14:19;15.40;99.90
52159;DHT22;38145;53.182;6.284;2022-08-23T04:16:46;15.50;99.90
52159;DHT22;38145;53.182;6.284;2022-08-23T04:19:13;15.40;99.90
52159;DHT22;38145;53.182;6.284;2022-08-23T04:21:45;15.30;99.90
52159;DHT22;38145;53.182;6.284;2022-08-23T04:24:13;15.20;99.90
52159;DHT22;38145;53.182;6.284;2022-08-23T04:26:40;15.30;99.90
52159;DHT22;38145;53.182;6.284;2022-08-23T04:29:07;15.40;99.90
52159;DHT22;38145;53.182;6.284;2022-08-23T04:31:37;15.30;99.90
52159;DHT22;38145;53.182;6.284;2022-08-23T04:34:03;15.30;99.90
52159;DHT22;38145;53.182;6.284;2022-08-23T04:36:33;15.20;99.90
52159;DHT22;38145;53.182;6.284;2022-08-23T04:39:00;15.10;99.90
52159;DHT22;38145;53.182;6.284;2022-08-23T04:41:27;15.00;99.90
52159;DHT22;38145;53.182;6.284;2022-08-23T04:44:14;15.00;99.90
52159;DHT22;38145;53.182;6.284;2022-08-23T04:46:41;14.90;99.90
52159;DHT22;38145;53.182;6.284;2022-08-23T04:49:09;15.00;99.90
52159;DHT22;38145;53.182;6.284;2022-08-23T04:51:39;15.00;99.90
52159;DHT22;38145;53.182;6.284;2022-08-23T04:54:05;14.90;99.90
52159;DHT22;38145;53.182;6.284;2022-08-23T04:56:33;15.00;99.90
52159;DHT22;38145;53.182;6.284;2022-08-23T04:59:09;15.00;99.90
52159;DHT22;38145;53.182;6.284;2022-08-23T05:01:36;15.00;99.90
52159;DHT22;38145;53.182;6.284;2022-08-23T05:04:04;14.90;99.90
52159;DHT22;38145;53.182;6.284;2022-08-23T05:06:30;14.90;99.90
52159;DHT22;38145;53.182;6.284;2022-08-23T05:08:57;14.90;99.90
52159;DHT22;38145;53.182;6.284;2022-08-23T05:11:23;14.80;99.90
52159;DHT22;38145;53.182;6.284;2022-08-23T05:13:50;14.90;99.90
52159;DHT22;38145;53.182;6.284;2022-08-23T05:16:17;15.00;99.90
52159;DHT22;38145;53.182;6.284;2022-08-23T05:18:51;15.00;99.90
52159;DHT22;38145;53.182;6.284;2022-08-23T05:21:22;14.90;99.90
52159;DHT22;38145;53.182;6.284;2022-08-23T05:23:49;14.90;99.90
52159;DHT22;38145;53.182;6.284;2022-08-23T05:26:16;14.90;99.90
52159;DHT22;38145;53.182;6.284;2022-08-23T05:28:45;14.90;99.90
52159;DHT22;38145;53.182;6.284;2022-08-23T05:31:16;15.00;99.90
52159;DHT22;38145;53.182;6.284;2022-08-23T05:33:44;15.00;99.90
52159;DHT22;38145;53.182;6.284;2022-08-23T05:36:12;15.00;99.90
52159;DHT22;38145;53.182;6.284;2022-08-23T05:38:39;15.10;99.90
52159;DHT22;38145;53.182;6.284;2022-08-23T05:41:07;15.10;99.90
52159;DHT22;38145;53.182;6.284;2022-08-23T05:43:37;15.10;99.90
52159;DHT22;38145;53.182;6.284;2022-08-23T05:46:09;15.30;99.90
52159;DHT22;38145;53.182;6.284;2022-08-23T05:48:38;15.30;99.90
52159;DHT22;38145;53.182;6.284;2022-08-23T05:51:14;15.40;99.90
52159;DHT22;38145;53.182;6.284;2022-08-23T05:53:41;15.50;99.90
52159;DHT22;38145;53.182;6.284;2022-08-23T05:56:10;15.60;99.90
52159;DHT22;38145;53.182;6.284;2022-08-23T05:58:41;15.60;99.90
52159;DHT22;38145;53.182;6.284;2022-08-23T06:01:09;15.70;99.90
52159;DHT22;38145;53.182;6.284;2022-08-23T06:03:39;15.90;99.90
52159;DHT22;38145;53.182;6.284;2022-08-23T06:06:10;16.00;99.90
52159;DHT22;38145;53.182;6.284;2022-08-23T06:08:38;16.20;99.90
52159;DHT22;38145;53.182;6.284;2022-08-23T06:11:19;16.50;99.90
52159;DHT22;38145;53.182;6.284;2022-08-23T06:13:53;16.60;99.90
52159;DHT22;38145;53.182;6.284;2022-08-23T06:16:22;16.90;99.90
52159;DHT22;38145;53.182;6.284;2022-08-23T06:18:50;16.90;99.90
52159;DHT22;38145;53.182;6.284;2022-08-23T06:21:19;17.00;99.90
52159;DHT22;38145;53.182;6.284;2022-08-23T06:23:46;17.10;99.90
52159;DHT22;38145;53.182;6.284;2022-08-23T06:26:24;17.30;99.90
52159;DHT22;38145;53.182;6.284;2022-08-23T06:28:53;17.40;99.90
52159;DHT22;38145;53.182;6.284;2022-08-23T06:31:24;17.50;99.90
52159;DHT22;38145;53.182;6.284;2022-08-23T06:34:18;17.50;99.90
52159;DHT22;38145;53.182;6.284;2022-08-23T06:36:48;17.70;99.90
52159;DHT22;38145;53.182;6.284;2022-08-23T06:39:17;17.70;99.90
52159;DHT22;38145;53.182;6.284;2022-08-23T06:41:43;17.90;99.90
52159;DHT22;38145;53.182;6.284;2022-08-23T06:44:10;18.00;99.90
52159;DHT22;38145;53.182;6.284;2022-08-23T06:46:38;17.90;99.90
52159;DHT22;38145;53.182;6.284;2022-08-23T06:49:07;18.10;99.90
52159;DHT22;38145;53.182;6.284;2022-08-23T06:51:38;18.10;99.90
52159;DHT22;38145;53.182;6.284;2022-08-23T06:54:07;18.20;99.90
52159;DHT22;38145;53.182;6.284;2022-08-23T06:56:41;18.30;99.90
52159;DHT22;38145;53.182;6.284;2022-08-23T06:59:09;18.30;99.90
52159;DHT22;38145;53.182;6.284;2022-08-23T07:01:45;18.50;99.90
52159;DHT22;38145;53.182;6.284;2022-08-23T07:04:16;18.50;99.90
52159;DHT22;38145;53.182;6.284;2022-08-23T07:06:48;18.60;99.90
52159;DHT22;38145;53.182;6.284;2022-08-23T07:09:15;18.60;99.90
52159;DHT22;38145;53.182;6.284;2022-08-23T07:11:44;18.70;99.90
52159;DHT22;38145;53.182;6.284;2022-08-23T07:14:13;18.70;99.90
52159;DHT22;38145;53.182;6.284;2022-08-23T07:16:44;18.80;99.90
52159;DHT22;38145;53.182;6.284;2022-08-23T07:19:12;18.90;99.90
52159;DHT22;38145;53.182;6.284;2022-08-23T07:21:41;19.00;99.90
52159;DHT22;38145;53.182;6.284;2022-08-23T07:24:10;19.20;99.90
52159;DHT22;38145;53.182;6.284;2022-08-23T07:26:40;19.30;99.90
52159;DHT22;38145;53.182;6.284;2022-08-23T07:29:08;19.40;99.90
52159;DHT22;38145;53.182;6.284;2022-08-23T07:31:39;19.60;99.90
52159;DHT22;38145;53.182;6.284;2022-08-23T07:34:07;20.00;99.90
52159;DHT22;38145;53.182;6.284;2022-08-23T07:36:35;20.30;99.90
52159;DHT22;38145;53.182;6.284;2022-08-23T07:39:05;20.60;99.90
52159;DHT22;38145;53.182;6.284;2022-08-23T07:41:32;20.90;99.90
52159;DHT22;38145;53.182;6.284;2022-08-23T07:44:01;21.20;99.90
52159;DHT22;38145;53.182;6.284;2022-08-23T07:46:31;21.30;99.90
52159;DHT22;38145;53.182;6.284;2022-08-23T07:48:59;21.40;99.90
52159;DHT22;38145;53.182;6.284;2022-08-23T07:51:29;21.40;99.90
52159;DHT22;38145;53.182;6.284;2022-08-23T07:53:57;21.40;99.90
52159;DHT22;38145;53.182;6.284;2022-08-23T07:56:23;21.60;99.90
52159;DHT22;38145;53.182;6.284;2022-08-23T07:58:50;21.60;99.90
52159;DHT22;38145;53.182;6.284;2022-08-23T08:01:20;21.70;99.90
52159;DHT22;38145;53.182;6.284;2022-08-23T08:03:50;21.80;99.90
52159;DHT22;38145;53.182;6.284;2022-08-23T08:06:22;21.90;99.90
52159;DHT22;38145;53.182;6.284;2022-08-23T08:08:50;22.00;99.90
52159;DHT22;38145;53.182;6.284;2022-08-23T08:11:20;22.00;99.90
52159;DHT22;38145;53.182;6.284;2022-08-23T08:13:48;22.10;99.90
52159;DHT22;38145;53.182;6.284;2022-08-23T08:16:24;22.30;99.90
52159;DHT22;38145;53.182;6.284;2022-08-23T08:18:53;22.60;99.90
52159;DHT22;38145;53.182;6.284;2022-08-23T08:21:20;22.80;99.90
52159;DHT22;38145;53.182;6.284;2022-08-23T08:23:47;23.00;99.90
52159;DHT22;38145;53.182;6.284;2022-08-23T08:26:13;23.10;99.90
52159;DHT22;38145;53.182;6.284;2022-08-23T08:28:41;23.30;99.90
52159;DHT22;38145;53.182;6.284;2022-08-23T08:31:08;23.50;99.90
52159;DHT22;38145;53.182;6.284;2022-08-23T08:33:38;23.90;99.90
52159;DHT22;38145;53.182;6.284;2022-08-23T08:36:28;24.20;99.90
52159;DHT22;38145;53.182;6.284;2022-08-23T08:39:02;24.30;99.90
52159;DHT22;38145;53.182;6.284;2022-08-23T08:41:47;24.30;99.90
52159;DHT22;38145;53.182;6.284;2022-08-23T08:46:55;24.20;99.90
52159;DHT22;38145;53.182;6.284;2022-08-23T08:49:32;24.40;99.90
52159;DHT22;38145;53.182;6.284;2022-08-23T08:54:43;24.40;99.90
52159;DHT22;38145;53.182;6.284;2022-08-23T08:57:20;24.40;99.90
52159;DHT22;38145;53.182;6.284;2022-08-23T08:59:57;24.60;99.90
52159;DHT22;38145;53.182;6.284;2022-08-23T09:02:29;25.00;99.90
52159;DHT22;38145;53.182;6.284;2022-08-23T09:04:58;25.60;99.90
52159;DHT22;38145;53.182;6.284;2022-08-23T09:07:50;25.90;99.90
52159;DHT22;38145;53.182;6.284;2022-08-23T09:10:38;26.10;99.90
52159;DHT22;38145;53.182;6.284;2022-08-23T09:16:22;26.20;99.90
52159;DHT22;38145;53.182;6.284;2022-08-23T09:18:52;26.20;99.90
52159;DHT22;38145;53.182;6.284;2022-08-23T09:21:20;26.30;99.90
52159;DHT22;38145;53.182;6.284;2022-08-23T09:23:48;26.50;99.90
52159;DHT22;38145;53.182;6.284;2022-08-23T09:26:16;26.50;99.90
52159;DHT22;38145;53.182;6.284;2022-08-23T09:28:45;26.60;99.90
52159;DHT22;38145;53.182;6.284;2022-08-23T09:31:34;26.70;99.90
52159;DHT22;38145;53.182;6.284;2022-08-23T09:33:58;26.90;99.90
52159;DHT22;38145;53.182;6.284;2022-08-23T09:36:25;27.00;99.90
52159;DHT22;38145;53.182;6.284;2022-08-23T09:38:57;27.30;99.90
52159;DHT22;38145;53.182;6.284;2022-08-23T09:41:36;27.60;99.90
52159;DHT22;38145;53.182;6.284;2022-08-23T09:44:07;27.90;99.90
52159;DHT22;38145;53.182;6.284;2022-08-23T09:46:36;28.10;99.90
52159;DHT22;38145;53.182;6.284;2022-08-23T09:49:27;28.20;99.90
52159;DHT22;38145;53.182;6.284;2022-08-23T09:51:58;28.20;99.90
52159;DHT22;38145;53.182;6.284;2022-08-23T09:54:34;28.10;99.90
52159;DHT22;38145;53.182;6.284;2022-08-23T09:57:04;28.30;99.90
52159;DHT22;38145;53.182;6.284;2022-08-23T09:59:42;28.50;99.90
52159;DHT22;38145;53.182;6.284;2022-08-23T10:07:23;28.70;99.90
52159;DHT22;38145;53.182;6.284;2022-08-23T10:09:51;28.70;99.90
52159;DHT22;38145;53.182;6.284;2022-08-23T10:12:17;28.80;99.90
52159;DHT22;38145;53.182;6.284;2022-08-23T10:14:45;28.90;99.90
52159;DHT22;38145;53.182;6.284;2022-08-23T10:17:25;28.90;98.20
52159;DHT22;38145;53.182;6.284;2022-08-23T10:20:12;28.60;93.70
52159;DHT22;38145;53.182;6.284;2022-08-23T10:22:48;28.30;94.40
52159;DHT22;38145;53.182;6.284;2022-08-23T10:25:35;28.00;98.80
52159;DHT22;38145;53.182;6.284;2022-08-23T10:31:20;27.90;99.60
52159;DHT22;38145;53.182;6.284;2022-08-23T10:36:44;28.30;97.30
52159;DHT22;38145;53.182;6.284;2022-08-23T10:39:21;28.40;95.40
52159;DHT22;38145;53.182;6.284;2022-08-23T10:42:12;28.60;93.70
52159;DHT22;38145;53.182;6.284;2022-08-23T10:44:52;28.90;95.50
52159;DHT22;38145;53.182;6.284;2022-08-23T10:47:44;29.00;95.00
52159;DHT22;38145;53.182;6.284;2022-08-23T10:50:18;29.10;92.30
52159;DHT22;38145;53.182;6.284;2022-08-23T10:52:56;29.10;93.90
52159;DHT22;38145;53.182;6.284;2022-08-23T10:55:23;29.10;92.60
52159;DHT22;38145;53.182;6.284;2022-08-23T10:58:03;29.40;91.70
52159;DHT22;38145;53.182;6.284;2022-08-23T11:00:33;29.60;94.60
52159;DHT22;38145;53.182;6.284;2022-08-23T11:03:13;29.70;93.40
52159;DHT22;38145;53.182;6.284;2022-08-23T11:14:24;29.60;87.80
52159;DHT22;38145;53.182;6.284;2022-08-23T11:16:58;29.70;90.50
52159;DHT22;38145;53.182;6.284;2022-08-23T11:19:47;29.80;89.70
52159;DHT22;38145;53.182;6.284;2022-08-23T11:22:27;29.80;72.60
52159;DHT22;38145;53.182;6.284;2022-08-23T11:24:56;29.90;79.60
52159;DHT22;38145;53.182;6.284;2022-08-23T11:33:09;30.00;76.30
52159;DHT22;38145;53.182;6.284;2022-08-23T11:35:43;29.90;79.50
52159;DHT22;38145;53.182;6.284;2022-08-23T11:38:11;30.00;82.30
52159;DHT22;38145;53.182;6.284;2022-08-23T11:40:41;30.10;78.60
52159;DHT22;38145;53.182;6.284;2022-08-23T11:43:18;30.30;81.50
52159;DHT22;38145;53.182;6.284;2022-08-23T11:45:46;30.40;76.60
52159;DHT22;38145;53.182;6.284;2022-08-23T11:51:18;30.50;71.60
52159;DHT22;38145;53.182;6.284;2022-08-23T11:54:04;30.50;74.10
52159;DHT22;38145;53.182;6.284;2022-08-23T11:56:41;30.60;69.80
52159;DHT22;38145;53.182;6.284;2022-08-23T11:59:30;30.60;74.50
52159;DHT22;38145;53.182;6.284;2022-08-23T12:02:31;30.70;70.90
52159;DHT22;38145;53.182;6.284;2022-08-23T12:05:00;30.70;69.80
52159;DHT22;38145;53.182;6.284;2022-08-23T12:13:43;30.50;66.20
52159;DHT22;38145;53.182;6.284;2022-08-23T12:16:33;30.40;62.00
52159;DHT22;38145;53.182;6.284;2022-08-23T12:19:05;30.30;64.70
52159;DHT22;38145;53.182;6.284;2022-08-23T12:21:49;30.20;66.30
52159;DHT22;38145;53.182;6.284;2022-08-23T12:24:31;30.20;68.70
52159;DHT22;38145;53.182;6.284;2022-08-23T12:27:11;30.20;67.00
52159;DHT22;38145;53.182;6.284;2022-08-23T12:29:56;30.20;68.20
52159;DHT22;38145;53.182;6.284;2022-08-23T12:32:44;30.30;68.00
52159;DHT22;38145;53.182;6.284;2022-08-23T12:35:45;30.30;67.70
52159;DHT22;38145;53.182;6.284;2022-08-23T12:38:33;30.30;66.90
52159;DHT22;38145;53.182;6.284;2022-08-23T12:41:21;30.10;67.40
52159;DHT22;38145;53.182;6.284;2022-08-23T12:44:08;30.00;69.00
52159;DHT22;38145;53.182;6.284;2022-08-23T12:46:42;29.90;67.90
52159;DHT22;38145;53.182;6.284;2022-08-23T12:49:28;29.80;65.70
52159;DHT22;38145;53.182;6.284;2022-08-23T12:52:06;29.60;67.10
52159;DHT22;38145;53.182;6.284;2022-08-23T12:54:39;29.50;69.80
52159;DHT22;38145;53.182;6.284;2022-08-23T12:57:09;29.40;71.10
52159;DHT22;38145;53.182;6.284;2022-08-23T12:59:54;29.40;71.40
52159;DHT22;38145;53.182;6.284;2022-08-23T13:02:29;29.50;72.90
52159;DHT22;38145;53.182;6.284;2022-08-23T13:05:02;29.60;72.00
52159;DHT22;38145;53.182;6.284;2022-08-23T13:07:30;29.60;73.80
52159;DHT22;38145;53.182;6.284;2022-08-23T13:09:58;29.60;72.60
52159;DHT22;38145;53.182;6.284;2022-08-23T13:12:27;29.70;73.50
52159;DHT22;38145;53.182;6.284;2022-08-23T13:14:54;29.70;73.90
52159;DHT22;38145;53.182;6.284;2022-08-23T13:17:32;29.60;73.70
52159;DHT22;38145;53.182;6.284;2022-08-23T13:22:31;29.90;71.30
52159;DHT22;38145;53.182;6.284;2022-08-23T13:25:07;30.10;70.80
52159;DHT22;38145;53.182;6.284;2022-08-23T13:27:51;30.10;65.20
52159;DHT22;38145;53.182;6.284;2022-08-23T13:30:22;30.00;62.90
52159;DHT22;38145;53.182;6.284;2022-08-23T13:32:59;29.90;66.50
52159;DHT22;38145;53.182;6.284;2022-08-23T13:35:41;29.80;67.00
52159;DHT22;38145;53.182;6.284;2022-08-23T13:38:21;29.60;68.90
52159;DHT22;38145;53.182;6.284;2022-08-23T13:40:56;29.50;68.70
52159;DHT22;38145;53.182;6.284;2022-08-23T13:43:33;29.40;71.30
52159;DHT22;38145;53.182;6.284;2022-08-23T13:48:49;29.60;70.40
52159;DHT22;38145;53.182;6.284;2022-08-23T13:51:22;29.70;64.50
52159;DHT22;38145;53.182;6.284;2022-08-23T13:53:56;29.60;65.50
52159;DHT22;38145;53.182;6.284;2022-08-23T13:56:24;29.50;66.20
52159;DHT22;38145;53.182;6.284;2022-08-23T13:59:03;29.30;67.60
52159;DHT22;38145;53.182;6.284;2022-08-23T14:01:30;29.20;69.90
52159;DHT22;38145;53.182;6.284;2022-08-23T14:03:57;29.10;69.30
52159;DHT22;38145;53.182;6.284;2022-08-23T14:06:23;29.00;71.90
52159;DHT22;38145;53.182;6.284;2022-08-23T14:08:51;29.10;74.60
52159;DHT22;38145;53.182;6.284;2022-08-23T14:11:19;29.20;75.10
52159;DHT22;38145;53.182;6.284;2022-08-23T14:13:47;29.50;73.30
52159;DHT22;38145;53.182;6.284;2022-08-23T14:16:25;29.50;68.70
52159;DHT22;38145;53.182;6.284;2022-08-23T14:18:53;29.60;70.00
52159;DHT22;38145;53.182;6.284;2022-08-23T14:21:19;29.70;70.20
52159;DHT22;38145;53.182;6.284;2022-08-23T14:23:46;29.80;71.00
52159;DHT22;38145;53.182;6.284;2022-08-23T14:26:18;29.90;71.10
52159;DHT22;38145;53.182;6.284;2022-08-23T14:28:45;29.80;66.50
52159;DHT22;38145;53.182;6.284;2022-08-23T14:31:12;29.70;66.40
52159;DHT22;38145;53.182;6.284;2022-08-23T14:33:41;29.70;68.70
52159;DHT22;38145;53.182;6.284;2022-08-23T14:36:11;29.60;69.30
52159;DHT22;38145;53.182;6.284;2022-08-23T14:38:38;29.60;66.70
52159;DHT22;38145;53.182;6.284;2022-08-23T14:41:09;29.60;66.30
52159;DHT22;38145;53.182;6.284;2022-08-23T14:43:36;29.60;67.10
52159;DHT22;38145;53.182;6.284;2022-08-23T14:46:04;29.60;69.90
52159;DHT22;38145;53.182;6.284;2022-08-23T14:48:35;29.60;69.50
52159;DHT22;38145;53.182;6.284;2022-08-23T14:51:02;29.60;68.80
52159;DHT22;38145;53.182;6.284;2022-08-23T14:53:29;29.50;66.90
52159;DHT22;38145;53.182;6.284;2022-08-23T14:55:57;29.40;63.80
52159;DHT22;38145;53.182;6.284;2022-08-23T14:58:25;29.40;66.70
52159;DHT22;38145;53.182;6.284;2022-08-23T15:00:52;29.50;66.20
52159;DHT22;38145;53.182;6.284;2022-08-23T15:03:23;29.60;66.30
52159;DHT22;38145;53.182;6.284;2022-08-23T15:05:51;29.60;65.50
52159;DHT22;38145;53.182;6.284;2022-08-23T15:08:23;29.60;65.40
52159;DHT22;38145;53.182;6.284;2022-08-23T15:10:51;29.70;75.90
52159;DHT22;38145;53.182;6.284;2022-08-23T15:13:20;29.20;92.60
52159;DHT22;38145;53.182;6.284;2022-08-23T15:15:51;28.80;98.40
52159;DHT22;38145;53.182;6.284;2022-08-23T15:18:20;28.30;99.90
52159;DHT22;38145;53.182;6.284;2022-08-23T15:20:50;28.10;99.90
52159;DHT22;38145;53.182;6.284;2022-08-23T15:23:16;27.70;99.90
52159;DHT22;38145;53.182;6.284;2022-08-23T15:25:46;27.50;99.90
52159;DHT22;38145;53.182;6.284;2022-08-23T15:28:14;27.40;99.90
52159;DHT22;38145;53.182;6.284;2022-08-23T15:30:49;27.30;99.90
52159;DHT22;38145;53.182;6.284;2022-08-23T15:33:16;27.30;99.90
52159;DHT22;38145;53.182;6.284;2022-08-23T15:35:46;27.30;99.90
52159;DHT22;38145;53.182;6.284;2022-08-23T15:38:17;27.30;99.90
52159;DHT22;38145;53.182;6.284;2022-08-23T15:40:44;27.40;99.90
52159;DHT22;38145;53.182;6.284;2022-08-23T15:43:12;27.40;99.90
52159;DHT22;38145;53.182;6.284;2022-08-23T15:45:39;27.40;99.90
52159;DHT22;38145;53.182;6.284;2022-08-23T15:48:15;27.40;99.90
52159;DHT22;38145;53.182;6.284;2022-08-23T15:50:45;27.30;99.90
52159;DHT22;38145;53.182;6.284;2022-08-23T15:53:12;27.30;99.90
52159;DHT22;38145;53.182;6.284;2022-08-23T15:55:39;27.20;99.90
52159;DHT22;38145;53.182;6.284;2022-08-23T15:58:07;27.10;99.90
52159;DHT22;38145;53.182;6.284;2022-08-23T16:00:36;27.10;99.90
52159;DHT22;38145;53.182;6.284;2022-08-23T16:03:02;27.00;99.90
52159;DHT22;38145;53.182;6.284;2022-08-23T16:05:29;26.90;99.90
52159;DHT22;38145;53.182;6.284;2022-08-23T16:07:56;26.90;99.90
52159;DHT22;38145;53.182;6.284;2022-08-23T16:10:24;26.80;99.90
52159;DHT22;38145;53.182;6.284;2022-08-23T16:12:50;26.80;99.90
52159;DHT22;38145;53.182;6.284;2022-08-23T16:15:19;26.80;99.90
52159;DHT22;38145;53.182;6.284;2022-08-23T16:17:45;26.70;99.90
52159;DHT22;38145;53.182;6.284;2022-08-23T16:20:16;26.50;99.90
52159;DHT22;38145;53.182;6.284;2022-08-23T16:22:48;26.30;99.90
52159;DHT22;38145;53.182;6.284;2022-08-23T16:25:19;26.20;99.90
52159;DHT22;38145;53.182;6.284;2022-08-23T16:27:46;26.00;99.90
52159;DHT22;38145;53.182;6.284;2022-08-23T16:30:13;25.80;99.90
52159;DHT22;38145;53.182;6.284;2022-08-23T16:32:41;25.70;99.90
52159;DHT22;38145;53.182;6.284;2022-08-23T16:35:08;25.60;99.90
52159;DHT22;38145;53.182;6.284;2022-08-23T16:37:35;25.40;99.90
52159;DHT22;38145;53.182;6.284;2022-08-23T16:40:07;25.30;99.90
52159;DHT22;38145;53.182;6.284;2022-08-23T16:42:35;25.20;99.90
52159;DHT22;38145;53.182;6.284;2022-08-23T16:45:02;25.10;99.90
52159;DHT22;38145;53.182;6.284;2022-08-23T16:47:31;25.00;99.90